Time;durP1;ratioP1;P1;durP2;ratioP2;P2;SDS_P1;SDS_P2;PMS_P1;PMS_P2;Temp;Humidity;BMP_temperature;BMP_pressure;BME280_temperature;BME280_humidity;BME280_pressure;Samples;Min_cycle;Max_cycle;Signal;HPM_P1;HPM_P2
2022/04/26 03:36:06;;;;;;;4.38;4.18;;;;;;;10.87;89.81;100752.38;6157103;23;20025;-71
2022/04/26 03:36:15;;;;;;;4.47;4.28;;;;;;;8.11;100.00;100957.69;6174921;23;20013;-73
2022/04/26 03:38:43;;;;;;;4.53;4.22;;;;;;;7.73;100.00;100897.25;6149042;23;20473;-72
2022/04/26 03:41:10;;;;;;;4.82;4.60;;;;;;;8.13;100.00;100966.34;6126473;23;20074;-71
2022/04/26 03:43:37;;;;;;;4.28;4.07;;;;;;;8.17;100.00;100968.75;6168840;23;20263;-71
2022/04/26 03:46:04;;;;;;;4.90;4.70;;;;;;;8.10;100.00;100945.56;6164533;23;20029;-71
2022/04/26 03:48:30;;;;;;;4.20;4.00;;;;;;;8.13;100.00;100958.50;6139023;23;20012;-71
2022/04/26 03:50:58;;;;;;;5.80;5.50;;;;;;;8.10;100.00;100958.63;6141904;23;20229;-71
2022/04/26 03:53:25;;;;;;;4.35;4.15;;;;;;;8.12;100.00;100952.41;6167196;23;20009;-70
2022/04/26 03:55:51;;;;;;;5.32;5.13;;;;;;;7.90;100.00;100939.31;6141534;23;20025;-71
2022/04/26 03:58:18;;;;;;;5.10;4.55;;;;;;;8.09;100.00;100988.25;6165261;23;20032;-72
2022/04/26 04:00:44;;;;;;;4.25;4.05;;;;;;;8.10;100.00;100969.06;6164521;23;20016;-71
2022/04/26 04:03:11;;;;;;;3.58;3.47;;;;;;;7.06;100.00;100807.44;6164846;23;20078;-71
2022/04/26 04:05:37;;;;;;;4.75;4.45;;;;;;;8.08;100.00;100968.25;6133010;23;20017;-71
2022/04/26 04:08:04;;;;;;;5.47;5.13;;;;;;;8.04;100.00;100950.97;6139136;23;20029;-72
2022/04/26 04:10:31;;;;;;;4.55;4.25;;;;;;;8.08;100.00;100965.63;6141444;23;20021;-70
2022/04/26 04:12:57;;;;;;;6.00;5.60;;;;;;;8.07;100.00;100970.03;6166740;23;20103;-69
2022/04/26 04:15:24;;;;;;;4.70;4.40;;;;;;;8.01;100.00;100959.78;6154135;23;20044;-71
2022/04/26 04:17:50;;;;;;;5.20;5.00;;;;;;;8.09;100.00;100976.03;6164169;23;20461;-71
2022/04/26 04:20:17;;;;;;;4.32;4.13;;;;;;;8.06;100.00;100978.78;6142258;23;20024;-71
2022/04/26 04:22:43;;;;;;;4.32;4.13;;;;;;;8.01;100.00;100965.03;6132449;23;20288;-72
2022/04/26 04:25:10;;;;;;;4.70;4.50;;;;;;;7.02;100.00;100807.63;6171290;23;20083;-69
2022/04/26 04:27:36;;;;;;;4.40;4.20;;;;;;;8.04;100.00;100979.72;6158951;23;20027;-71
2022/04/26 04:30:03;;;;;;;4.78;4.57;;;;;;;8.03;100.00;100988.50;6155264;23;20274;-71
2022/04/26 04:32:29;;;;;;;4.00;3.80;;;;;;;7.96;100.00;100993.94;6161387;23;20036;-72
2022/04/26 04:34:58;;;;;;;5.55;5.35;;;;;;;7.61;100.00;100942.97;6134438;23;20016;-71
2022/04/26 04:37:24;;;;;;;4.28;4.07;;;;;;;7.48;100.00;100920.81;6172356;23;20025;-70
2022/04/26 04:39:51;;;;;;;4.97;4.78;;;;;;;7.93;100.00;100972.28;6166480;23;20450;-71
2022/04/26 04:42:18;;;;;;;4.53;4.22;;;;;;;7.46;100.00;100907.81;6166266;23;20024;-69
2022/04/26 04:44:44;;;;;;;4.35;4.15;;;;;;;7.86;100.00;100976.91;6169611;23;20035;-71
2022/04/26 04:47:11;;;;;;;4.40;4.13;;;;;;;7.44;100.00;100907.03;6163244;23;20458;-71
2022/04/26 04:49:38;;;;;;;4.10;3.72;;;;;;;6.97;100.00;100854.72;6144906;23;20110;-71
2022/04/26 04:52:04;;;;;;;5.25;5.05;;;;;;;7.71;100.00;100993.13;6136701;23;20024;-71
2022/04/26 04:54:31;;;;;;;4.88;4.57;;;;;;;7.08;100.00;100899.56;6141186;23;20048;-71
2022/04/26 04:56:58;;;;;;;5.20;5.00;;;;;;;7.74;100.00;101013.94;6135928;23;20009;-71
2022/04/26 04:59:27;;;;;;;3.67;3.58;;;;;;;7.74;100.00;101022.59;6164212;23;20104;-71
2022/04/26 05:01:53;;;;;;;5.57;5.32;;;;;;;7.67;100.00;101023.72;6138422;23;20272;-70
2022/04/26 05:04:19;;;;;;;5.03;4.72;;;;;;;6.26;100.00;100785.84;6167890;23;20541;-69
2022/04/26 05:06:46;;;;;;;4.55;4.35;;;;;;;7.15;100.00;100948.03;6162374;23;20067;-71
2022/04/26 05:09:12;;;;;;;3.97;3.78;;;;;;;7.26;100.00;100960.72;6136709;23;20027;-71
2022/04/26 05:11:39;;;;;;;3.70;3.60;;;;;;;7.50;100.00;101006.03;6170260;23;20031;-70
2022/04/26 05:14:06;;;;;;;6.47;5.97;;;;;;;7.26;100.00;100949.44;6139431;23;20024;-70
2022/04/26 05:16:32;;;;;;;4.20;4.00;;;;;;;7.76;100.00;101019.94;6146804;23;20032;-70
2022/04/26 05:18:59;;;;;;;5.65;5.35;;;;;;;7.79;100.00;101017.22;6156150;23;20012;-70
2022/04/26 05:21:25;;;;;;;5.15;4.85;;;;;;;7.33;100.00;100943.94;6166016;23;20083;-70
2022/04/26 05:26:37;;;;;;;4.22;4.03;;;;;;;7.77;100.00;101022.47;6165781;23;20231;-74
2022/04/26 05:29:05;;;;;;;4.32;4.13;;;;;;;7.85;100.00;101017.00;6153913;23;20025;-71
2022/04/26 05:31:32;;;;;;;4.55;4.28;;;;;;;7.23;100.00;100928.66;6161456;23;20036;-69
2022/04/26 05:33:58;;;;;;;5.88;5.57;;;;;;;7.30;100.00;100951.03;6103106;23;20040;-72
2022/04/26 05:36:30;;;;;;;3.70;3.60;;;;;;;7.51;100.00;101007.72;6154843;23;20025;-70
2022/04/26 05:38:59;;;;;;;4.80;4.60;;;;;;;7.77;100.00;101029.47;6175757;23;20532;-71
2022/04/26 05:41:25;;;;;;;4.20;4.00;;;;;;;7.75;100.00;101039.97;6141045;23;20465;-71
2022/04/26 05:43:52;;;;;;;7.75;5.45;;;;;;;6.82;100.00;100921.31;6143129;23;20017;-71
2022/04/26 05:46:18;;;;;;;4.32;4.13;;;;;;;7.58;100.00;101051.03;6168533;23;20012;-70
2022/04/26 05:48:45;;;;;;;4.93;4.72;;;;;;;7.17;100.00;101005.41;6119592;23;20017;-72
2022/04/26 05:51:11;;;;;;;3.60;3.50;;;;;;;6.94;100.00;100982.69;6169278;23;20189;-70
2022/04/26 05:53:40;;;;;;;3.80;3.70;;;;;;;7.06;100.00;101015.38;6143391;23;20008;-71
2022/04/26 05:56:08;;;;;;;4.75;4.55;;;;;;;7.34;100.00;101051.84;6148174;23;20021;-70
2022/04/26 05:58:35;;;;;;;4.18;3.97;;;;;;;6.92;100.00;100961.00;6131547;23;20046;-73
2022/04/26 06:01:03;;;;;;;6.05;5.75;;;;;;;7.03;100.00;100984.13;6157340;23;20028;-71
2022/04/26 06:03:29;;;;;;;3.97;3.78;;;;;;;7.10;100.00;100999.53;6143941;23;20039;-69
2022/04/26 06:05:57;;;;;;;5.60;5.40;;;;;;;7.25;100.00;101033.88;6163159;23;20240;-71
2022/04/26 06:08:23;;;;;;;4.10;3.90;;;;;;;7.15;100.00;101025.47;6165457;23;20082;-71
2022/04/26 06:10:50;;;;;;;4.53;4.32;;;;;;;6.88;100.00;100965.47;6162231;23;20036;-71
2022/04/26 06:13:16;;;;;;;3.80;3.67;;;;;;;7.34;100.00;101057.06;6144713;23;20103;-71
2022/04/26 06:15:42;;;;;;;3.97;3.78;;;;;;;6.83;100.00;100996.06;6162421;23;20031;-71
2022/04/26 06:18:09;;;;;;;3.58;3.47;;;;;;;7.26;100.00;101066.91;6167697;23;20037;-69
2022/04/26 06:20:35;;;;;;;4.30;4.10;;;;;;;7.28;100.00;101059.88;6164967;23;20378;-71
2022/04/26 06:23:02;;;;;;;4.78;4.57;;;;;;;7.29;100.00;101072.88;6166566;23;20013;-70
2022/04/26 06:25:28;;;;;;;4.10;3.90;;;;;;;6.79;100.00;101004.88;6147992;23;20117;-69
2022/04/26 06:27:55;;;;;;;5.35;5.15;;;;;;;7.27;100.00;101086.88;6115786;23;20376;-70
2022/04/26 06:30:23;;;;;;;4.10;3.90;;;;;;;6.96;100.00;101043.50;6167972;23;20028;-72
2022/04/26 06:32:49;;;;;;;4.70;4.50;;;;;;;6.41;100.00;100964.34;6144372;23;20037;-70
2022/04/26 06:35:15;;;;;;;4.22;4.03;;;;;;;6.98;100.00;101039.09;6167875;23;20035;-71
2022/04/26 06:37:42;;;;;;;4.18;3.97;;;;;;;7.15;100.00;101039.38;6180790;23;20111;-71
2022/04/26 06:40:08;;;;;;;4.75;4.45;;;;;;;7.13;100.00;101007.25;6164723;23;20354;-70
2022/04/26 06:42:35;;;;;;;3.83;3.63;;;;;;;7.24;100.00;101011.28;6172348;23;20501;-71
2022/04/26 06:45:01;;;;;;;4.68;4.47;;;;;;;7.37;100.00;101041.28;6165263;23;20374;-72
2022/04/26 06:47:28;;;;;;;3.97;3.78;;;;;;;7.35;100.00;101032.66;6147049;23;20079;-70
2022/04/26 06:49:54;;;;;;;5.25;5.05;;;;;;;7.74;100.00;101076.63;6112915;23;20284;-70
2022/04/26 06:52:20;;;;;;;4.13;3.92;;;;;;;7.81;100.00;101077.25;6167567;23;20029;-71
2022/04/26 06:54:47;;;;;;;4.10;3.90;;;;;;;7.83;100.00;101076.28;6165050;23;20261;-71
2022/04/26 06:57:13;;;;;;;4.43;4.22;;;;;;;7.98;100.00;101077.53;6162325;23;20033;-72
2022/04/26 06:59:40;;;;;;;3.60;3.50;;;;;;;7.95;100.00;101080.25;6135660;23;20022;-71
2022/04/26 07:02:06;;;;;;;5.00;4.60;;;;;;;7.99;100.00;101087.06;6130168;23;20023;-69
2022/04/26 07:04:33;;;;;;;3.97;3.78;;;;;;;7.92;100.00;101062.91;6166946;23;20037;-71
2022/04/26 07:07:00;;;;;;;5.05;4.85;;;;;;;8.19;100.00;101087.19;6134860;23;20424;-71
2022/04/26 07:09:27;;;;;;;3.90;3.70;;;;;;;8.26;100.00;101086.97;6159628;23;20554;-69
2022/04/26 07:11:53;;;;;;;5.18;4.97;;;;;;;7.99;100.00;101060.94;6141395;23;20009;-72
2022/04/26 07:14:20;;;;;;;4.38;4.18;;;;;;;7.79;100.00;101041.56;6167208;23;20028;-69
2022/04/26 07:16:50;;;;;;;4.13;3.97;;;;;;;7.95;100.00;101094.16;6138532;23;20239;-74
2022/04/26 07:19:17;;;;;;;4.00;3.80;;;;;;;7.59;100.00;101044.88;6172797;23;20489;-71
2022/04/26 07:21:48;;;;;;;3.83;3.70;;;;;;;7.99;100.00;101110.59;6141796;23;20032;-72
2022/04/26 07:24:31;;;;;;;4.85;4.55;;;;;;;7.36;100.00;101016.09;6147950;23;20582;-70
2022/04/26 07:26:57;;;;;;;6.07;5.68;;;;;;;7.92;100.00;101102.13;6120278;23;20092;-71
2022/04/26 07:29:23;;;;;;;4.85;4.65;;;;;;;8.06;100.00;101114.72;6143712;23;20075;-70
2022/04/26 07:31:50;;;;;;;4.68;4.47;;;;;;;7.90;100.00;101124.00;6144557;23;20496;-71
2022/04/26 07:34:22;;;;;;;4.67;4.47;;;;;;;7.93;100.00;101129.09;6127844;23;20496;-69
2022/04/26 07:36:59;;;;;;;6.18;5.75;;;;;;;7.93;100.00;101129.94;6142004;23;20437;-70
2022/04/26 07:39:26;;;;;;;3.83;3.70;;;;;;;8.04;100.00;101133.94;6148184;23;20279;-70
2022/04/26 07:41:53;;;;;;;4.75;4.55;;;;;;;7.68;100.00;101087.28;6165236;23;20026;-69
2022/04/26 07:44:19;;;;;;;4.00;3.80;;;;;;;7.95;100.00;101146.41;6168679;23;20016;-71
2022/04/26 07:46:47;;;;;;;3.83;3.72;;;;;;;7.98;100.00;101143.72;6135606;23;20021;-72
2022/04/26 07:49:15;;;;;;;3.90;3.63;;;;;;;7.41;100.00;101071.63;6130556;23;20493;-72
2022/04/26 07:51:42;;;;;;;4.13;3.97;;;;;;;7.64;100.00;101089.16;6144842;23;20020;-70
2022/04/26 07:54:09;;;;;;;4.13;3.92;;;;;;;7.86;100.00;101144.13;6157461;23;20173;-71
2022/04/26 07:56:36;;;;;;;3.60;3.50;;;;;;;7.70;100.00;101120.28;6165156;23;20012;-72
2022/04/26 07:59:03;;;;;;;5.25;5.05;;;;;;;7.69;100.00;101121.16;6150763;23;20496;-69
2022/04/26 08:01:31;;;;;;;4.22;4.03;;;;;;;7.89;100.00;101154.47;6171366;23;20397;-71
2022/04/26 08:03:58;;;;;;;5.22;5.03;;;;;;;7.87;100.00;101158.06;6159765;23;20046;-71
2022/04/26 08:06:25;;;;;;;4.28;4.07;;;;;;;7.86;100.00;101201.63;6141933;23;20024;-71
2022/04/26 08:08:53;;;;;;;5.97;5.57;;;;;;;7.68;100.00;101143.00;6170334;23;20300;-70
2022/04/26 08:11:23;;;;;;;5.15;4.72;;;;;;;7.42;100.00;101082.91;6166571;23;20085;-71
2022/04/26 08:13:49;;;;;;;6.10;5.53;;;;;;;7.98;100.00;101154.19;6161603;23;20037;-73
2022/04/26 08:16:17;;;;;;;4.50;4.30;;;;;;;7.52;100.00;101076.50;6171887;23;20055;-70
2022/04/26 08:18:44;;;;;;;4.40;4.20;;;;;;;7.89;100.00;101154.47;6142740;23;20032;-71
2022/04/26 08:21:14;;;;;;;5.90;4.38;;;;;;;8.13;100.00;101158.00;6136804;23;20017;-70
2022/04/26 08:29:14;;;;;;;4.43;4.13;;;;;;;7.31;100.00;100898.75;6162384;23;20036;-72
2022/04/26 08:31:41;;;;;;;4.80;4.57;;;;;;;8.73;100.00;101124.50;6143636;23;20070;-72
2022/04/26 08:34:07;;;;;;;4.72;4.50;;;;;;;9.24;100.00;101161.84;6166884;23;20080;-69
2022/04/26 08:36:34;;;;;;;4.20;4.00;;;;;;;9.11;100.00;101168.47;6168532;23;20155;-72
2022/04/26 08:39:01;;;;;;;5.38;5.18;;;;;;;8.92;100.00;101176.16;6174387;23;20347;-70
2022/04/26 08:41:27;;;;;;;5.40;5.10;;;;;;;9.07;100.00;101175.56;6122833;23;20445;-72
2022/04/26 08:43:53;;;;;;;9.05;6.95;;;;;;;8.48;100.00;101074.88;6166186;23;20838;-71
2022/04/26 08:46:20;;;;;;;6.30;5.70;;;;;;;8.97;100.00;101188.16;6171181;23;20087;-71
2022/04/26 08:51:33;;;;;;;4.93;4.72;;;;;;;8.19;100.00;101104.66;6143308;23;20054;-71
2022/04/26 08:53:59;;;;;;;6.65;6.28;;;;;;;8.27;100.00;101139.22;6165283;23;20258;-73
2022/04/26 08:56:26;;;;;;;4.40;4.20;;;;;;;8.92;100.00;101200.56;6162377;23;20445;-68
2022/04/26 08:58:52;;;;;;;5.35;5.15;;;;;;;8.75;100.00;101209.03;6151222;23;20088;-71
2022/04/26 09:01:23;;;;;;;3.97;3.78;;;;;;;8.73;100.00;101205.63;6165830;23;20050;-70
2022/04/26 09:03:58;;;;;;;5.45;5.15;;;;;;;8.72;100.00;101214.41;6138724;23;20384;-72
2022/04/26 09:06:43;;;;;;;4.43;4.22;;;;;;;8.81;100.00;101215.81;6159782;23;20191;-71
2022/04/26 09:09:14;;;;;;;4.97;4.68;;;;;;;8.52;100.00;101164.53;6160799;23;20055;-73
2022/04/26 09:11:42;;;;;;;4.20;4.00;;;;;;;9.02;100.00;101222.03;6142915;23;20020;-71
2022/04/26 09:14:28;;;;;;;4.60;4.30;;;;;;;8.53;100.00;101150.56;6140439;23;20168;-71
2022/04/26 09:17:09;;;;;;;6.22;5.93;;;;;;;8.57;100.00;101146.91;6145931;23;20020;-70
2022/04/26 09:19:46;;;;;;;3.80;3.70;;;;;;;9.12;100.00;101226.00;6162015;23;20035;-69
2022/04/26 09:22:23;;;;;;;4.22;4.03;;;;;;;8.94;100.00;101210.97;6166473;23;20347;-71
2022/04/26 09:25:07;;;;;;;5.53;5.25;;;;;;;9.05;100.00;101239.38;6117387;23;20272;-71
2022/04/26 09:27:39;;;;;;;4.60;4.40;;;;;;;9.27;100.00;101240.28;6173075;23;20275;-72
2022/04/26 09:30:10;;;;;;;3.80;3.60;;;;;;;9.49;100.00;101245.53;6162209;23;20036;-72
2022/04/26 09:32:46;;;;;;;4.82;4.63;;;;;;;9.92;100.00;101235.13;6167969;23;20044;-71
2022/04/26 09:35:22;;;;;;;4.07;3.88;;;;;;;9.93;99.20;101239.47;6134301;23;20482;-73
2022/04/26 09:37:49;;;;;;;6.00;5.60;;;;;;;9.96;96.30;101241.94;6158855;23;20021;-70
2022/04/26 09:40:21;;;;;;;5.03;4.82;;;;;;;10.21;97.41;101231.28;6175551;23;20245;-70
2022/04/26 09:42:50;;;;;;;5.38;5.10;;;;;;;10.24;95.39;101241.66;6158866;23;20028;-69
2022/04/26 09:45:17;;;;;;;4.75;4.40;;;;;;;9.69;93.94;101196.75;6169164;23;20017;-71
2022/04/26 09:47:44;;;;;;;4.68;4.47;;;;;;;10.02;95.72;101260.03;6174086;23;20168;-73
2022/04/26 09:50:14;;;;;;;4.10;3.90;;;;;;;10.05;97.39;101265.16;6155468;23;20075;-72
2022/04/26 09:52:42;;;;;;;5.13;4.93;;;;;;;9.95;97.22;101267.31;6171467;23;20008;-70
2022/04/26 09:55:13;;;;;;;4.32;4.13;;;;;;;9.79;99.24;101224.28;6132727;23;20024;-73
2022/04/26 09:57:41;;;;;;;5.50;5.20;;;;;;;9.82;96.98;101223.28;6138448;23;20013;-69
2022/04/26 10:00:10;;;;;;;5.57;5.13;;;;;;;10.16;99.20;101272.59;6171211;23;20350;-71
2022/04/26 10:02:44;;;;;;;4.88;4.68;;;;;;;9.77;99.23;101218.25;6168126;23;20059;-71
2022/04/26 10:05:14;;;;;;;6.28;4.38;;;;;;;10.19;98.52;101283.81;6164134;23;20646;-73
2022/04/26 10:07:44;;;;;;;5.38;4.95;;;;;;;9.74;97.37;101205.25;6173699;23;20080;-73
2022/04/26 10:10:13;;;;;;;4.75;4.45;;;;;;;10.22;97.08;101285.44;6109164;23;20102;-71
2022/04/26 10:12:40;;;;;;;4.68;4.38;;;;;;;9.98;95.47;101243.59;6173506;23;20025;-74
2022/04/26 10:15:07;;;;;;;5.35;5.13;;;;;;;10.05;90.80;101274.81;6138405;23;20035;-72
2022/04/26 10:17:33;;;;;;;4.82;4.60;;;;;;;9.71;92.00;101226.38;6176827;23;20099;-70
2022/04/26 10:20:01;;;;;;;6.28;5.97;;;;;;;10.46;91.56;101282.75;6137257;23;20610;-73
2022/04/26 10:23:06;;;;;;;4.45;4.25;;;;;;;10.82;90.77;101280.31;6143040;23;20036;-72
2022/04/26 10:25:33;;;;;;;4.40;4.20;;;;;;;11.12;89.08;101282.50;6024987;23;20023;-71
2022/04/26 10:28:17;;;;;;;6.32;6.00;;;;;;;11.37;86.68;101280.47;6025202;23;20585;-75
2022/04/26 10:30:51;;;;;;;5.22;4.85;;;;;;;11.34;85.00;101282.38;6080569;23;20025;-72
2022/04/26 10:33:44;;;;;;;4.85;4.60;;;;;;;11.10;87.14;101286.97;6157489;23;20024;-71
2022/04/26 10:36:35;;;;;;;5.03;4.72;;;;;;;10.91;86.43;101292.22;6137963;23;20752;-70
2022/04/26 10:39:07;;;;;;;5.68;5.45;;;;;;;11.13;87.29;101316.59;6176640;23;20338;-71
2022/04/26 10:41:35;;;;;;;4.65;4.45;;;;;;;10.34;86.21;101181.81;6164835;23;20095;-73
2022/04/26 10:44:17;;;;;;;7.05;6.65;;;;;;;10.04;88.52;101124.47;6132487;23;20085;-69
2022/04/26 10:46:45;;;;;;;5.45;5.05;;;;;;;11.14;86.33;101285.91;6145097;23;20029;-73
2022/04/26 10:49:24;;;;;;;4.93;4.63;;;;;;;11.48;85.96;101297.50;6169765;23;21270;-72
2022/04/26 10:51:57;;;;;;;7.35;6.75;;;;;;;11.40;83.05;101295.22;6168412;23;20368;-71
2022/04/26 10:54:51;;;;;;;4.40;4.20;;;;;;;11.33;85.68;101299.09;6162485;23;20013;-69
2022/04/26 10:57:20;;;;;;;4.90;4.70;;;;;;;11.74;83.83;101299.75;6162600;23;20082;-72
2022/04/26 11:00:07;;;;;;;5.75;5.40;;;;;;;11.91;81.39;101299.00;6138235;23;20039;-70
2022/04/26 11:02:36;;;;;;;5.38;4.72;;;;;;;11.93;79.12;101299.78;6164716;23;20278;-69
2022/04/26 11:05:12;;;;;;;6.15;5.85;;;;;;;11.00;76.55;101094.81;6140816;23;20191;-71
2022/04/26 11:07:41;;;;;;;5.03;4.70;;;;;;;12.59;78.16;101300.94;6164637;23;20012;-70
2022/04/26 11:10:10;;;;;;;5.32;5.13;;;;;;;13.01;74.99;101302.28;6110608;23;20009;-71
2022/04/26 11:12:38;;;;;;;24.65;23.35;;;;;;;13.11;76.01;101292.94;6038025;23;20328;-70
2022/04/26 11:15:21;;;;;;;5.38;5.10;;;;;;;13.41;74.08;101310.72;6075487;23;20081;-73
2022/04/26 11:17:50;;;;;;;5.68;5.28;;;;;;;13.32;76.40;101293.59;6144015;23;20129;-72
2022/04/26 11:20:24;;;;;;;7.22;6.82;;;;;;;12.73;74.13;101229.13;6174155;23;20016;-71
2022/04/26 11:22:55;;;;;;;6.10;5.60;;;;;;;13.38;76.05;101284.50;6143654;23;20546;-71
2022/04/26 11:28:11;;;;;;;8.85;5.95;;;;;;;13.48;71.80;101308.59;6168739;23;20100;-72
2022/04/26 11:30:48;;;;;;;6.38;6.00;;;;;;;13.09;73.71;101310.63;6174579;23;20466;-71
2022/04/26 11:33:19;;;;;;;5.55;5.15;;;;;;;13.06;72.98;101307.28;6167169;23;20506;-73
2022/04/26 11:36:04;;;;;;;6.22;5.78;;;;;;;13.09;74.04;101301.84;6162215;23;20035;-72
2022/04/26 11:38:31;;;;;;;5.85;5.55;;;;;;;13.16;75.00;101269.81;6177830;23;20102;-74
2022/04/26 11:41:03;;;;;;;7.47;7.03;;;;;;;13.57;76.09;101306.31;6170251;23;20457;-70
2022/04/26 11:43:31;;;;;;;5.65;5.35;;;;;;;13.52;74.72;101297.78;6141244;23;20083;-72
2022/04/26 11:45:59;;;;;;;7.50;7.00;;;;;;;13.81;74.09;101320.84;6165979;23;20318;-69
2022/04/26 11:48:30;;;;;;;5.10;4.90;;;;;;;13.40;71.57;101192.16;6169413;23;20024;-72
2022/04/26 11:50:58;;;;;;;6.45;6.15;;;;;;;14.62;71.42;101260.72;6144091;23;20017;-71
2022/04/26 11:53:30;;;;;;;6.75;6.35;;;;;;;15.36;70.76;101307.28;6121831;23;20012;-73
2022/04/26 11:56:00;;;;;;;;;;;;;;;15.59;67.15;101310.25;6160454;23;20458;-70
2022/04/26 11:58:27;;;;;;;5.53;5.20;;;;;;;15.20;64.99;101311.84;6154329;23;19959;-71
2022/04/26 12:00:56;;;;;;;7.28;6.88;;;;;;;14.45;68.44;101282.84;6162348;23;20578;-73
2022/04/26 12:03:25;;;;;;;5.45;5.22;;;;;;;13.49;66.99;101253.13;6174667;23;20031;-72
2022/04/26 12:05:56;;;;;;;6.68;6.38;;;;;;;13.99;70.55;101321.59;6169290;23;20070;-74
2022/04/26 12:08:23;;;;;;;6.18;5.57;;;;;;;13.73;70.57;101258.81;6168180;23;20197;-73
2022/04/26 12:10:49;;;;;;;7.40;6.93;;;;;;;14.80;69.21;101310.78;6113238;23;20025;-72
2022/04/26 12:13:30;;;;;;;8.40;7.80;;;;;;;14.61;67.52;101317.13;6147178;23;20033;-71
2022/04/26 12:16:13;;;;;;;7.50;7.03;;;;;;;13.98;70.79;101199.38;6140524;23;20023;-73
2022/04/26 12:18:50;;;;;;;5.85;5.55;;;;;;;14.92;69.36;101307.38;6168969;23;20008;-72
2022/04/26 12:21:18;;;;;;;7.18;6.65;;;;;;;14.75;68.54;101290.75;6158205;23;20095;-71
2022/04/26 12:23:45;;;;;;;8.07;5.55;;;;;;;15.17;68.89;101301.44;6164115;23;20021;-73
2022/04/26 12:26:11;;;;;;;6.47;5.88;;;;;;;14.78;67.37;101308.22;6145584;23;20121;-72
2022/04/26 12:28:51;;;;;;;5.93;5.63;;;;;;;14.30;67.84;101225.66;6158241;23;20179;-71
2022/04/26 12:31:29;;;;;;;5.35;5.10;;;;;;;14.69;66.72;101250.63;6115541;23;20512;-72
2022/04/26 12:34:13;;;;;;;5.55;5.25;;;;;;;14.93;70.08;101282.66;6131352;23;20080;-71
2022/04/26 12:37:16;;;;;;;5.95;5.55;;;;;;;15.67;64.22;101300.03;6140834;23;20333;-71
2022/04/26 12:39:44;;;;;;;5.90;5.60;;;;;;;15.55;63.26;101301.69;6135984;23;20083;-71
2022/04/26 12:42:34;;;;;;;6.50;5.97;;;;;;;15.11;61.94;101281.53;6154886;23;20016;-71
2022/04/26 12:45:06;;;;;;;7.45;6.93;;;;;;;14.98;65.31;101288.50;6161153;23;20005;-71
2022/04/26 12:50:31;;;;;;;8.13;7.47;;;;;;;15.79;64.18;101285.19;6155063;23;20122;-72
2022/04/26 12:53:04;;;;;;;7.05;6.72;;;;;;;15.57;63.72;101267.19;6141129;23;20016;-73
2022/04/26 12:55:37;;;;;;;6.20;5.82;;;;;;;15.51;63.45;101254.34;6151345;23;20093;-69
2022/04/26 12:58:15;;;;;;;7.75;7.15;;;;;;;15.94;62.23;101281.56;6166784;23;20399;-73
2022/04/26 13:00:52;;;;;;;7.13;5.75;;;;;;;15.64;59.65;101214.75;6146398;23;20014;-73
2022/04/26 13:03:24;;;;;;;6.32;5.90;;;;;;;16.25;58.67;101276.88;6171122;23;20023;-73
2022/04/26 13:06:03;;;;;;;7.43;6.93;;;;;;;15.32;60.67;101267.91;6168065;23;20061;-72
2022/04/26 13:08:51;;;;;;;7.65;7.05;;;;;;;15.46;60.97;101281.09;6165297;23;20458;-71
2022/04/26 13:11:18;;;;;;;6.03;5.53;;;;;;;15.87;58.68;101213.25;6161870;23;20029;-73
2022/04/26 13:13:50;;;;;;;6.75;5.85;;;;;;;13.97;54.79;100928.50;6162328;23;20380;-73
2022/04/26 13:16:17;;;;;;;7.20;6.60;;;;;;;15.20;57.91;101231.66;6173568;23;20040;-72
2022/04/26 13:18:43;;;;;;;5.50;5.20;;;;;;;16.00;58.86;101292.72;6173790;23;20606;-72
2022/04/26 13:21:10;;;;;;;6.78;6.38;;;;;;;15.48;58.58;101236.03;6173507;23;20101;-70
2022/04/26 13:23:38;;;;;;;5.75;5.35;;;;;;;14.99;61.10;101260.28;6137285;23;20024;-74
2022/04/26 13:26:06;;;;;;;6.57;6.22;;;;;;;14.20;65.22;101315.09;6146400;23;20137;-70
2022/04/26 13:28:34;;;;;;;6.07;5.68;;;;;;;13.33;68.83;101254.91;6170629;23;20041;-70
2022/04/26 13:31:01;;;;;;;6.95;6.55;;;;;;;12.76;76.10;101308.81;6145236;23;20028;-71
2022/04/26 13:33:27;;;;;;;5.32;5.07;;;;;;;11.90;80.35;101204.38;6144790;23;20093;-73
2022/04/26 13:35:56;;;;;;;6.25;5.95;;;;;;;12.04;79.21;101262.41;6167163;23;20152;-72
2022/04/26 13:38:22;;;;;;;5.20;4.90;;;;;;;12.29;79.89;101305.97;6153054;23;20383;-72
2022/04/26 13:40:52;;;;;;;5.85;5.35;;;;;;;12.05;78.81;101258.88;6167945;23;20200;-71
2022/04/26 13:43:20;;;;;;;5.00;4.80;;;;;;;12.53;78.90;101295.97;6171770;23;20423;-70
2022/04/26 13:46:07;;;;;;;5.55;5.25;;;;;;;12.87;73.82;101287.19;6174073;23;20077;-71
2022/04/26 13:48:33;;;;;;;5.30;4.90;;;;;;;13.42;74.14;101319.47;6141046;23;20019;-72
2022/04/26 13:51:00;;;;;;;6.15;5.85;;;;;;;13.94;71.19;101311.31;6142176;23;20016;-70
2022/04/26 13:53:29;;;;;;;5.25;4.97;;;;;;;14.01;68.36;101246.69;6150899;23;20017;-71
2022/04/26 13:55:56;;;;;;;6.30;6.00;;;;;;;14.14;66.98;101312.81;6142462;23;20445;-72
2022/04/26 13:58:22;;;;;;;5.53;5.22;;;;;;;13.49;70.31;101279.50;6173414;23;20095;-72
2022/04/26 14:00:48;;;;;;;5.53;5.25;;;;;;;13.41;73.17;101287.00;6165650;23;20456;-70
2022/04/26 14:03:15;;;;;;;11.48;5.32;;;;;;;13.27;72.70;101261.34;6179045;23;20076;-73
2022/04/26 14:05:41;;;;;;;5.68;5.35;;;;;;;13.08;73.72;101272.00;6164780;23;20071;-72
2022/04/26 14:08:08;;;;;;;4.93;4.63;;;;;;;12.79;75.61;101239.34;6136676;23;20025;-70
2022/04/26 14:10:34;;;;;;;5.88;5.50;;;;;;;13.13;75.84;101295.50;6149124;23;20020;-71
2022/04/26 14:13:01;;;;;;;7.25;6.68;;;;;;;13.01;74.48;101260.13;6168304;23;20067;-70
2022/04/26 14:23:42;;;;;;;5.57;5.18;;;;;;;14.66;71.55;101308.97;6169465;23;20087;-72
2022/04/26 14:26:08;;;;;;;4.95;4.75;;;;;;;14.65;70.31;101289.59;6167921;23;20025;-73
2022/04/26 14:28:35;;;;;;;5.20;5.00;;;;;;;14.28;69.91;101164.19;6141697;23;20020;-69
2022/04/26 14:31:01;;;;;;;6.20;5.90;;;;;;;15.08;66.77;101308.16;6167209;23;20020;-73
2022/04/26 14:33:27;;;;;;;5.10;4.90;;;;;;;15.21;65.61;101302.94;6165923;23;20068;-72
2022/04/26 14:35:54;;;;;;;6.13;5.82;;;;;;;15.23;66.31;101308.97;6165416;23;20188;-70
2022/04/26 14:38:20;;;;;;;5.45;5.18;;;;;;;14.49;65.11;101149.69;6175281;23;20016;-71
2022/04/26 14:40:47;;;;;;;5.55;5.25;;;;;;;14.66;64.27;101143.38;6141729;23;20525;-70
2022/04/26 14:43:14;;;;;;;4.90;4.70;;;;;;;15.97;62.67;101306.97;6140688;23;20101;-71
2022/04/26 14:45:47;;;;;;;5.50;5.20;;;;;;;15.54;62.21;101310.56;6141685;23;20027;-72
2022/04/26 14:48:16;;;;;;;5.78;5.45;;;;;;;15.80;61.44;101300.16;6105373;23;20055;-72
2022/04/26 14:50:52;;;;;;;6.07;5.78;;;;;;;14.98;61.49;101222.44;6132832;23;20272;-73
2022/04/26 14:53:18;;;;;;;5.80;5.40;;;;;;;15.42;59.24;101263.72;6112408;23;20017;-71
2022/04/26 14:56:04;;;;;;;6.28;5.88;;;;;;;15.47;62.99;101282.78;6135057;23;20021;-72
2022/04/26 14:58:31;;;;;;;5.20;4.90;;;;;;;16.10;61.90;101313.19;6143726;23;20016;-70
2022/04/26 15:00:58;;;;;;;7.07;6.53;;;;;;;16.33;58.08;101316.09;6128890;23;20017;-71
2022/04/26 15:03:24;;;;;;;5.47;5.18;;;;;;;16.33;54.45;101279.88;6136168;23;20084;-72
2022/04/26 15:05:51;;;;;;;5.95;5.45;;;;;;;16.27;54.02;101282.09;6134817;23;20035;-72
2022/04/26 15:11:02;;;;;;;7.30;6.80;;;;;;;16.28;55.38;101284.63;6116721;23;20090;-73
2022/04/26 15:18:59;;;;;;;7.05;6.65;;;;;;;15.11;59.43;101233.94;6100150;23;20087;-72
2022/04/26 15:21:25;;;;;;;6.30;5.80;;;;;;;15.11;59.19;101333.53;6145771;23;20013;-72
2022/04/26 15:23:54;;;;;;;7.18;6.63;;;;;;;14.37;61.49;101287.69;6133428;23;20074;-72
2022/04/26 15:26:22;;;;;;;5.70;5.40;;;;;;;14.26;60.13;101340.31;6141188;23;20024;-71
2022/04/26 15:28:48;;;;;;;5.22;4.93;;;;;;;14.03;60.26;101360.94;6137704;23;20037;-72
2022/04/26 15:31:18;;;;;;;4.90;4.70;;;;;;;13.57;65.92;101369.59;6142590;23;20028;-70
2022/04/26 15:33:46;;;;;;;5.78;5.38;;;;;;;12.95;71.70;101327.16;6106784;23;20088;-73
2022/04/26 15:36:14;;;;;;;5.03;4.70;;;;;;;12.34;75.13;101299.50;6146767;23;20612;-71
2022/04/26 15:38:40;;;;;;;5.43;5.13;;;;;;;12.54;77.55;101379.28;6137985;23;20394;-72
2022/04/26 15:41:07;;;;;;;5.50;5.20;;;;;;;12.42;78.02;101378.09;6152197;23;20123;-71
2022/04/26 15:43:35;;;;;;;5.72;5.18;;;;;;;12.28;79.28;101397.19;6170661;23;20256;-72